Pagrindinis puslapis
METAR-TAF:

METAR-TAF

Oro uostai :

Vasa, Suomija

platuma: 63-03N, ilguma: 021-46E, Aukštis: 4 m

Dabartinis oras

Ataskaita buvo paskelbta 41 minutes, ne 04:50 UTC
Vėjas 3 kt iš Pietų, svyruoja nuo Pietryčių ir Pietvakarių
Temperatūra 12°C
Drėgmė 50%
Slėgis 1025 hPa
Matomumas 10 km arba daugiau

METAR: EFVA 220450Z AUTO 19003KT 140V220 9999 //////CB 12/02 Q1025

Laikas: 08:31 (05:31 UTC)

Prognozė

Ataskaita buvo paskelbta 3 valandos ir 10 minutes, ne 02:21 UTC
Prognozė galioja nuo 22 metu 03 UTC su 23 metu 03 UTC
Vėjas 2 kt nuo kintamojo kryptimis
Matomumas 10 km arba daugiau
nėra debesų žemiau 1500 m ir nėra kamuolinių lietaus debesų
Tapsmas
nuo 22 metu 10 UTC su 22 metu 12 UTC
Vėjas 10 kt iš Vakarų
Tapsmas
nuo 22 metu 17 UTC su 22 metu 20 UTC
Vėjas 2 kt nuo kintamojo kryptimis

TAF: EFVA 220221Z 2203/2303 VRB02KT CAVOK BECMG 2210/2212 26010KT BECMG 2217/2220 VRB02KT

Orai ataskaitas ir orų prognozės (METAR, TAF).

turimą stotys yra geltonos ir raudonos taškus žemėlapyje.

Perkelti pele per norėdami pamatyti stoties vardą.

Tada spustelėkite, norėdami matyti oro stebėjimo ir prognozės.

Norėdami pakeisti žemėlapį: spustelėkite ant žalios mygtukų su juodo kryžiaus žemyn,; žalią mygtuką su brūkšneliu, jei norite nutolinti; arba žalių rodyklių gretimoms žemėlapius.


METAR-TAF: